Time;durP1;ratioP1;P1;durP2;ratioP2;P2;SDS_P1;SDS_P2;PMS_P1;PMS_P2;Temp;Humidity;BMP_temperature;BMP_pressure;BME280_temperature;BME280_humidity;BME280_pressure;Samples;Min_cycle;Max_cycle;Signal;HPM_P1;HPM_P2
2023/11/25 00:01:51;;;;;;;0.40;0.40;;;;;;;10.51;100.00;94893.16;5064684;28;20052;-61
2023/11/25 00:04:19;;;;;;;0.40;0.40;;;;;;;10.30;100.00;94892.72;5063480;28;20075;-60
2023/11/25 00:06:45;;;;;;;0.50;0.50;;;;;;;10.26;100.00;94894.75;5063275;28;20515;-60
2023/11/25 00:09:15;;;;;;;0.50;0.50;;;;;;;9.86;100.00;94813.63;5064973;28;20067;-61
2023/11/25 00:11:42;;;;;;;0.40;0.40;;;;;;;10.39;100.00;94879.94;5063170;28;20098;-60
2023/11/25 00:14:09;;;;;;;0.40;0.40;;;;;;;10.52;100.00;94878.13;5063109;28;20051;-59
2023/11/25 00:16:36;;;;;;;0.50;0.50;;;;;;;10.04;100.00;94786.44;5064476;28;20107;-59
2023/11/25 00:19:05;;;;;;;0.50;0.50;;;;;;;10.39;100.00;94857.00;5062890;28;20056;-60
2023/11/25 00:21:32;;;;;;;0.40;0.40;;;;;;;10.24;100.00;94845.38;5062921;28;20400;-60
2023/11/25 00:23:59;;;;;;;0.50;0.50;;;;;;;10.62;100.00;94871.59;5062772;28;20056;-60
2023/11/25 00:26:26;;;;;;;0.50;0.50;;;;;;;10.71;100.00;94868.28;5064068;28;20059;-60
2023/11/25 00:28:53;;;;;;;0.40;0.40;;;;;;;10.68;100.00;94847.75;5062960;28;20048;-60
2023/11/25 00:31:20;;;;;;;0.50;0.50;;;;;;;10.79;100.00;94864.16;5079796;28;20174;-60
2023/11/25 00:33:46;;;;;;;0.50;0.50;;;;;;;10.64;100.00;94868.41;5062590;28;20052;-60
2023/11/25 00:36:13;;;;;;;0.40;0.40;;;;;;;10.62;100.00;94870.81;5062967;28;20052;-61
2023/11/25 00:38:40;;;;;;;0.50;0.50;;;;;;;10.46;100.00;94846.56;5062992;28;20060;-60
2023/11/25 00:41:07;;;;;;;0.50;0.50;;;;;;;10.40;100.00;94839.97;5064064;28;20067;-60
2023/11/25 00:43:36;;;;;;;0.50;0.50;;;;;;;10.43;100.00;94858.50;5062597;28;20474;-60
2023/11/25 00:46:03;;;;;;;0.50;0.50;;;;;;;10.42;100.00;94872.75;5064578;28;20123;-59
2023/11/25 00:48:35;;;;;;;0.50;0.50;;;;;;;10.27;100.00;94861.16;5075140;28;20053;-60
2023/11/25 00:51:02;;;;;;;0.40;0.40;;;;;;;10.29;100.00;94864.28;5044023;28;20057;-59
2023/11/25 00:53:29;;;;;;;0.50;0.50;;;;;;;10.23;100.00;94854.91;5043566;28;20053;-59
2023/11/25 00:55:56;;;;;;;0.50;0.50;;;;;;;10.17;100.00;94842.75;5044069;28;20052;-58
2023/11/25 00:58:23;;;;;;;0.40;0.40;;;;;;;9.93;100.00;94796.91;5053503;28;20075;-59
2023/11/25 01:00:50;;;;;;;0.43;0.43;;;;;;;9.83;100.00;94781.25;5063510;28;20087;-59
2023/11/25 01:03:16;;;;;;;0.50;0.50;;;;;;;10.24;100.00;94834.31;5078900;28;20045;-59
2023/11/25 01:05:44;;;;;;;0.40;0.40;;;;;;;10.07;100.00;94812.50;5063817;28;20055;-62
2023/11/25 01:08:11;;;;;;;0.40;0.40;;;;;;;10.22;100.00;94831.22;5062243;28;20053;-59
2023/11/25 01:10:37;;;;;;;0.50;0.50;;;;;;;10.02;100.00;94772.25;5064011;28;20479;-59
2023/11/25 01:13:04;;;;;;;0.50;0.50;;;;;;;10.19;100.00;94793.34;5063915;28;20080;-59
2023/11/25 01:15:31;;;;;;;0.43;0.43;;;;;;;9.96;100.00;94807.13;5062312;28;20045;-59
2023/11/25 01:17:58;;;;;;;0.45;0.45;;;;;;;9.92;100.00;94780.75;5061975;28;20056;-59
2023/11/25 01:20:25;;;;;;;0.50;0.50;;;;;;;9.67;100.00;94739.69;5079122;28;20052;-61
2023/11/25 01:22:51;;;;;;;0.47;0.47;;;;;;;10.10;100.00;94795.84;5063911;28;20049;-59
2023/11/25 01:25:18;;;;;;;0.50;0.50;;;;;;;10.10;100.00;94787.53;5063964;28;20075;-60
2023/11/25 01:27:45;;;;;;;0.40;0.40;;;;;;;9.88;100.00;94758.66;5062382;28;20501;-61
2023/11/25 01:30:12;;;;;;;0.40;0.40;;;;;;;10.17;100.00;94784.66;5063608;28;20052;-59
2023/11/25 01:32:39;;;;;;;0.40;0.40;;;;;;;9.72;100.00;94725.38;5062130;28;20060;-60
2023/11/25 01:35:06;;;;;;;0.50;0.50;;;;;;;10.11;100.00;94775.31;5063522;28;20082;-61
2023/11/25 01:37:33;;;;;;;0.50;0.50;;;;;;;9.74;100.00;94706.41;5063080;28;20136;-61
2023/11/25 01:40:00;;;;;;;0.40;0.40;;;;;;;10.14;100.00;94752.31;5063687;28;20040;-59
2023/11/25 01:42:27;;;;;;;0.40;0.40;;;;;;;9.63;100.00;94683.69;5061520;28;20059;-60
2023/11/25 01:44:54;;;;;;;0.43;0.43;;;;;;;10.12;100.00;94743.66;5078804;28;20075;-58
2023/11/25 01:47:20;;;;;;;0.45;0.45;;;;;;;10.08;100.00;94740.19;5062990;28;20044;-59
2023/11/25 01:49:48;;;;;;;0.43;0.43;;;;;;;9.86;100.00;94691.97;5063625;28;20057;-61
2023/11/25 01:52:17;;;;;;;0.50;0.50;;;;;;;10.00;100.00;94688.94;5063150;28;20052;-59
2023/11/25 01:54:44;;;;;;;0.50;0.50;;;;;;;10.19;100.00;94721.41;5062097;28;20053;-59
2023/11/25 01:57:12;;;;;;;0.40;0.40;;;;;;;10.11;100.00;94731.03;5061182;28;20057;-61
2023/11/25 01:59:39;;;;;;;0.45;0.45;;;;;;;10.07;100.00;94713.72;5045058;28;20045;-61
2023/11/25 02:02:06;;;;;;;0.40;0.40;;;;;;;10.04;100.00;94702.69;5062800;28;20052;-61
2023/11/25 02:04:33;;;;;;;0.43;0.43;;;;;;;9.98;100.00;94688.59;5063463;28;20053;-62
2023/11/25 02:07:00;;;;;;;0.50;0.50;;;;;;;9.83;100.00;94665.16;5063366;28;20048;-59
2023/11/25 02:09:27;;;;;;;0.43;0.43;;;;;;;10.14;100.00;94696.22;5065441;28;20522;-62
2023/11/25 02:11:55;;;;;;;0.40;0.40;;;;;;;10.21;100.00;94702.38;5066895;28;20049;-60
2023/11/25 02:14:22;;;;;;;0.40;0.40;;;;;;;9.88;100.00;94659.13;5066614;28;20067;-60
2023/11/25 02:16:49;;;;;;;0.40;0.40;;;;;;;10.05;100.00;94698.75;5066245;28;20312;-60
2023/11/25 02:19:16;;;;;;;0.40;0.40;;;;;;;10.00;100.00;94691.72;5066908;28;20045;-60
2023/11/25 02:21:43;;;;;;;0.40;0.40;;;;;;;9.90;100.00;94653.97;5065359;28;20044;-60
2023/11/25 02:24:09;;;;;;;0.50;0.50;;;;;;;10.19;100.00;94660.56;5066744;28;20152;-59
2023/11/25 02:26:36;;;;;;;0.40;0.40;;;;;;;10.12;100.00;94654.38;5066690;28;20440;-60
2023/11/25 02:29:05;;;;;;;0.40;0.40;;;;;;;10.12;100.00;94646.06;5066738;28;20053;-59
2023/11/25 02:31:32;;;;;;;0.40;0.40;;;;;;;10.17;100.00;94657.44;5066297;28;20518;-59
2023/11/25 02:33:59;;;;;;;0.40;0.40;;;;;;;10.19;100.00;94638.44;5065043;28;20144;-61
2023/11/25 02:36:26;;;;;;;0.50;0.50;;;;;;;9.91;100.00;94594.69;5066219;28;20336;-59
2023/11/25 02:38:53;;;;;;;0.40;0.40;;;;;;;10.11;100.00;94634.25;5048585;28;20052;-59
2023/11/25 02:41:20;;;;;;;0.43;0.43;;;;;;;10.14;100.00;94635.38;5064907;28;20075;-59
2023/11/25 02:43:47;;;;;;;0.40;0.40;;;;;;;10.11;100.00;94614.88;5066163;28;20048;-59
2023/11/25 02:46:14;;;;;;;0.50;0.50;;;;;;;10.14;100.00;94625.09;5065878;28;20088;-59
2023/11/25 02:48:41;;;;;;;0.45;0.45;;;;;;;10.10;100.00;94624.38;5065827;28;20082;-60
2023/11/25 02:51:08;;;;;;;0.50;0.50;;;;;;;10.07;100.00;94618.91;5048430;28;20050;-59
2023/11/25 02:53:35;;;;;;;0.50;0.50;;;;;;;9.58;100.00;94521.13;5065999;28;20423;-60
2023/11/25 02:56:02;;;;;;;0.40;0.40;;;;;;;10.09;100.00;94603.47;5066229;28;20048;-59
2023/11/25 02:58:32;;;;;;;0.47;0.47;;;;;;;9.93;100.00;94575.72;5066051;28;20056;-59
2023/11/25 03:01:06;;;;;;;0.40;0.40;;;;;;;10.25;100.00;94591.66;5066364;28;20057;-59
2023/11/25 03:03:36;;;;;;;0.50;0.50;;;;;;;10.26;100.00;94599.53;5065981;28;20507;-59
2023/11/25 03:06:05;;;;;;;0.40;0.40;;;;;;;10.17;100.00;94602.09;5048309;28;20052;-59
2023/11/25 03:08:34;;;;;;;0.40;0.40;;;;;;;10.26;100.00;94605.06;5065690;28;20055;-59
2023/11/25 03:11:11;;;;;;;0.40;0.40;;;;;;;10.28;100.00;94602.66;5064139;28;20054;-59
2023/11/25 03:13:40;;;;;;;0.40;0.40;;;;;;;10.27;100.00;94601.13;5065814;28;20052;-59
2023/11/25 03:16:07;;;;;;;0.50;0.50;;;;;;;10.42;100.00;94594.06;5065743;28;20052;-59
2023/11/25 03:18:35;;;;;;;0.50;0.50;;;;;;;10.43;100.00;94598.38;5065136;28;20475;-60
2023/11/25 03:21:02;;;;;;;0.50;0.50;;;;;;;10.43;100.00;94595.59;5064712;28;20451;-59
2023/11/25 03:23:30;;;;;;;0.50;0.50;;;;;;;10.32;100.00;94592.28;5047006;28;20056;-59
2023/11/25 03:25:58;;;;;;;0.50;0.50;;;;;;;10.10;100.00;94546.94;5065644;28;20143;-59
2023/11/25 03:28:26;;;;;;;0.50;0.50;;;;;;;10.17;100.00;94568.91;5047304;28;20060;-60
2023/11/25 03:30:54;;;;;;;0.50;0.50;;;;;;;9.52;100.00;94528.38;5047300;28;20450;-60
2023/11/25 03:33:21;;;;;;;0.40;0.40;;;;;;;9.68;100.00;94536.72;5047124;28;20049;-59
2023/11/25 03:35:47;;;;;;;0.40;0.40;;;;;;;9.90;100.00;94582.09;5047279;28;20044;-60
2023/11/25 03:38:15;;;;;;;0.40;0.40;;;;;;;9.80;100.00;94577.53;5047316;28;20048;-60
2023/11/25 03:40:42;;;;;;;0.40;0.40;;;;;;;9.32;100.00;94569.00;5047252;28;20052;-60
2023/11/25 03:43:09;;;;;;;0.40;0.40;;;;;;;9.21;100.00;94529.75;5065078;28;20139;-59
2023/11/25 03:45:35;;;;;;;0.47;0.47;;;;;;;9.58;100.00;94557.06;5065081;28;20178;-61
2023/11/25 03:48:03;;;;;;;0.40;0.40;;;;;;;8.66;100.00;94513.75;5047475;28;20056;-59
2023/11/25 03:50:29;;;;;;;0.40;0.40;;;;;;;9.20;100.00;94561.31;5030736;28;20146;-61
2023/11/25 03:52:56;;;;;;;0.40;0.40;;;;;;;9.05;100.00;94499.28;5046718;28;20055;-59
2023/11/25 03:55:23;;;;;;;0.40;0.40;;;;;;;9.20;100.00;94509.63;5046914;28;20052;-60
2023/11/25 03:57:50;;;;;;;0.40;0.40;;;;;;;9.39;100.00;94544.00;5046438;28;20144;-60
2023/11/25 04:00:17;;;;;;;0.40;0.40;;;;;;;9.31;100.00;94548.09;5064742;28;20546;-60
2023/11/25 04:02:45;;;;;;;0.43;0.43;;;;;;;9.65;100.00;94543.13;5064593;28;20044;-60
2023/11/25 04:05:13;;;;;;;0.40;0.40;;;;;;;9.60;100.00;94534.53;5063239;28;20243;-60
2023/11/25 04:07:40;;;;;;;0.47;0.47;;;;;;;7.91;100.00;94280.25;5064667;28;20131;-63
2023/11/25 04:10:17;;;;;;;0.40;0.40;;;;;;;9.75;100.00;94533.84;5064746;28;20040;-60
2023/11/25 04:12:47;;;;;;;0.40;0.40;;;;;;;10.01;100.00;94552.22;5064595;28;20960;-59
2023/11/25 04:15:16;;;;;;;0.40;0.40;;;;;;;9.72;100.00;94493.19;5064842;28;20067;-60
2023/11/25 04:17:43;;;;;;;0.40;0.40;;;;;;;9.32;100.00;94428.16;5064190;28;20159;-62
2023/11/25 04:20:13;;;;;;;0.40;0.40;;;;;;;10.04;100.00;94542.28;5064160;28;20088;-62
2023/11/25 04:22:42;;;;;;;0.50;0.50;;;;;;;10.17;100.00;94552.31;5063406;28;20052;-60
2023/11/25 04:25:13;;;;;;;0.50;0.50;;;;;;;10.23;100.00;94545.06;5065122;28;20939;-60
2023/11/25 04:27:42;;;;;;;0.40;0.40;;;;;;;9.95;100.00;94484.81;5062982;28;20048;-60
2023/11/25 04:30:10;;;;;;;0.50;0.50;;;;;;;9.99;100.00;94491.03;5063058;28;20045;-61
2023/11/25 04:32:42;;;;;;;0.50;0.50;;;;;;;9.86;100.00;94450.69;5064036;28;20611;-60
2023/11/25 04:35:09;;;;;;;0.50;0.50;;;;;;;10.21;100.00;94500.44;5063909;28;20048;-60
2023/11/25 04:37:39;;;;;;;0.50;0.50;;;;;;;10.52;100.00;94529.41;5063939;28;20052;-60
2023/11/25 04:40:07;;;;;;;0.47;0.47;;;;;;;10.54;100.00;94532.50;5064052;28;20052;-60
2023/11/25 04:42:34;;;;;;;0.40;0.40;;;;;;;10.48;100.00;94525.91;5063806;28;20128;-59
2023/11/25 04:45:01;;;;;;;0.45;0.45;;;;;;;10.49;100.00;94530.25;5064160;28;20087;-58
2023/11/25 04:47:27;;;;;;;0.50;0.50;;;;;;;10.17;100.00;94480.41;5063690;28;20051;-58
2023/11/25 04:49:54;;;;;;;0.50;0.50;;;;;;;10.58;100.00;94526.88;5064562;28;20083;-60
2023/11/25 04:52:21;;;;;;;0.50;0.50;;;;;;;8.62;100.00;94228.09;5061870;28;20507;-59
2023/11/25 04:54:49;;;;;;;0.47;0.47;;;;;;;10.58;100.00;94510.28;5063801;28;20060;-60
2023/11/25 04:57:16;;;;;;;0.50;0.50;;;;;;;10.69;100.00;94530.97;5062330;28;20519;-59
2023/11/25 04:59:43;;;;;;;0.50;0.50;;;;;;;10.76;100.00;94526.47;5063876;28;20127;-60
2023/11/25 05:02:10;;;;;;;0.50;0.50;;;;;;;10.70;100.00;94517.91;5063532;28;20052;-59
2023/11/25 05:04:37;;;;;;;0.50;0.50;;;;;;;10.61;100.00;94499.13;5063825;28;20048;-60
2023/11/25 05:07:04;;;;;;;0.40;0.40;;;;;;;10.60;100.00;94508.66;5063574;28;20057;-60
2023/11/25 05:09:31;;;;;;;0.40;0.40;;;;;;;10.64;100.00;94505.78;5063792;28;20049;-60
2023/11/25 05:11:59;;;;;;;0.50;0.50;;;;;;;10.61;100.00;94510.19;5063722;28;20094;-60
2023/11/25 05:14:26;;;;;;;0.50;0.50;;;;;;;10.60;100.00;94508.66;5063714;28;20044;-60
2023/11/25 05:16:55;;;;;;;0.50;0.50;;;;;;;10.64;100.00;94497.47;5063362;28;20144;-61
2023/11/25 05:19:22;;;;;;;0.40;0.40;;;;;;;10.65;100.00;94513.63;5062276;28;20053;-60
2023/11/25 05:21:49;;;;;;;0.50;0.50;;;;;;;10.69;100.00;94489.44;5063547;28;20063;-60
2023/11/25 05:24:16;;;;;;;0.50;0.50;;;;;;;10.67;100.00;94491.06;5061656;28;20862;-58
2023/11/25 05:26:43;;;;;;;0.50;0.50;;;;;;;10.33;100.00;94466.59;5061845;28;20110;-59
2023/11/25 05:29:10;;;;;;;0.50;0.50;;;;;;;10.56;100.00;94488.56;5061898;28;20044;-60
2023/11/25 05:31:36;;;;;;;0.50;0.50;;;;;;;10.50;100.00;94484.75;5063543;28;20070;-61
2023/11/25 05:34:05;;;;;;;0.50;0.50;;;;;;;10.40;100.00;94482.25;5064043;28;20053;-60
2023/11/25 05:36:34;;;;;;;0.50;0.50;;;;;;;10.43;100.00;94482.16;5063961;28;20143;-59
2023/11/25 05:39:02;;;;;;;0.40;0.40;;;;;;;10.43;100.00;94482.16;5063546;28;20079;-59
2023/11/25 05:41:28;;;;;;;0.47;0.47;;;;;;;10.02;100.00;94429.34;5062951;28;20060;-60
2023/11/25 05:43:57;;;;;;;0.50;0.50;;;;;;;10.13;100.00;94440.22;5062936;28;20048;-60
2023/11/25 05:46:24;;;;;;;0.40;0.40;;;;;;;10.37;100.00;94472.81;5064987;28;20420;-60
2023/11/25 05:48:52;;;;;;;0.45;0.45;;;;;;;10.42;100.00;94475.06;4991665;28;20051;-60
2023/11/25 05:51:20;;;;;;;0.50;0.50;;;;;;;9.83;100.00;94416.34;5065337;28;20051;-60
2023/11/25 05:53:47;;;;;;;0.50;0.50;;;;;;;10.22;100.00;94482.66;5065666;28;20113;-60
2023/11/25 05:56:14;;;;;;;0.50;0.50;;;;;;;10.26;100.00;94472.28;5065533;28;20530;-61
2023/11/25 05:58:40;;;;;;;0.40;0.40;;;;;;;10.00;100.00;94445.63;5070882;28;20052;-60
2023/11/25 06:01:07;;;;;;;0.50;0.50;;;;;;;10.32;100.00;94476.09;5066766;28;20508;-60
2023/11/25 06:03:34;;;;;;;0.50;0.50;;;;;;;10.37;100.00;94461.75;5066997;28;20513;-60
2023/11/25 06:06:07;;;;;;;0.40;0.40;;;;;;;10.17;100.00;94430.63;5066959;28;20052;-61
2023/11/25 06:08:34;;;;;;;0.50;0.50;;;;;;;8.51;100.00;94222.81;5082037;28;20056;-60
2023/11/25 06:11:01;;;;;;;0.43;0.43;;;;;;;10.40;100.00;94476.72;5066922;28;20060;-60
2023/11/25 06:13:28;;;;;;;0.40;0.40;;;;;;;10.44;100.00;94471.88;5065432;28;20076;-62
2023/11/25 06:15:56;;;;;;;0.50;0.50;;;;;;;10.32;100.00;94453.97;5066660;28;20060;-60
2023/11/25 06:18:24;;;;;;;0.50;0.50;;;;;;;8.64;100.00;94190.63;5082003;28;20064;-59
2023/11/25 06:20:51;;;;;;;0.40;0.40;;;;;;;10.40;100.00;94477.47;5066501;28;20054;-60
2023/11/25 06:23:18;;;;;;;0.50;0.50;;;;;;;10.43;100.00;94460.00;5066500;28;20519;-60
2023/11/25 06:25:45;;;;;;;0.50;0.50;;;;;;;10.52;100.00;94462.97;5066538;28;20075;-60
2023/11/25 06:28:14;;;;;;;0.50;0.50;;;;;;;10.43;100.00;94457.25;5066507;28;20071;-62
2023/11/25 06:30:41;;;;;;;0.50;0.50;;;;;;;10.52;100.00;94473.25;5065282;28;20048;-60
2023/11/25 06:33:08;;;;;;;0.50;0.50;;;;;;;10.21;100.00;94458.22;5066472;28;20059;-60
2023/11/25 06:35:36;;;;;;;0.50;0.50;;;;;;;10.26;100.00;94436.31;5065128;28;20057;-60
2023/11/25 06:38:04;;;;;;;0.40;0.40;;;;;;;10.39;100.00;94458.53;5066109;28;20485;-59
2023/11/25 06:40:33;;;;;;;0.50;0.50;;;;;;;10.42;100.00;94479.81;5066177;28;20097;-61
2023/11/25 06:43:00;;;;;;;0.40;0.40;;;;;;;10.19;100.00;94483.53;5065691;28;20099;-59
2023/11/25 06:45:27;;;;;;;0.50;0.50;;;;;;;10.13;100.00;94496.28;5065500;28;20052;-60
2023/11/25 06:47:54;;;;;;;0.50;0.50;;;;;;;9.99;100.00;94430.22;5065828;28;20048;-59
2023/11/25 06:50:22;;;;;;;0.40;0.40;;;;;;;10.32;100.00;94476.09;5066024;28;20052;-60
2023/11/25 06:52:49;;;;;;;0.50;0.50;;;;;;;9.76;99.12;94375.06;5065613;28;20049;-60
2023/11/25 06:55:19;;;;;;;0.40;0.40;;;;;;;10.05;99.49;94403.59;5064388;28;20052;-60
2023/11/25 06:57:49;;;;;;;0.45;0.45;;;;;;;10.35;100.00;94457.88;5065381;28;20135;-61
2023/11/25 07:00:17;;;;;;;0.40;0.40;;;;;;;10.33;96.29;94461.06;5047765;28;20562;-62
2023/11/25 07:02:44;;;;;;;0.50;0.50;;;;;;;9.92;95.30;94397.22;5065868;28;20482;-61
2023/11/25 07:05:13;;;;;;;0.45;0.45;;;;;;;10.00;97.45;94404.13;5065207;28;20534;-61
2023/11/25 07:07:40;;;;;;;0.40;0.40;;;;;;;10.46;95.08;94442.53;5066074;28;20067;-58
2023/11/25 07:10:13;;;;;;;0.50;0.50;;;;;;;10.44;91.88;94461.59;5063852;28;20310;-61
2023/11/25 07:12:41;;;;;;;0.40;0.40;;;;;;;10.43;91.40;94460.00;5065405;28;20060;-61
2023/11/25 07:15:09;;;;;;;0.40;0.40;;;;;;;10.51;88.73;94466.94;5065204;28;20570;-62
2023/11/25 07:17:36;;;;;;;0.40;0.40;;;;;;;10.43;89.16;94448.94;5063820;28;20115;-60
2023/11/25 07:20:05;;;;;;;0.50;0.50;;;;;;;10.49;89.89;94474.91;5065625;28;20404;-61
2023/11/25 07:22:32;;;;;;;0.50;0.50;;;;;;;10.25;84.64;94431.22;5065565;28;20056;-60
2023/11/25 07:25:02;;;;;;;0.50;0.50;;;;;;;10.32;82.25;94476.09;5065149;28;20052;-61
2023/11/25 07:27:28;;;;;;;0.40;0.40;;;;;;;8.14;85.81;94158.97;5055035;28;20049;-61
2023/11/25 07:30:00;;;;;;;0.50;0.50;;;;;;;9.18;81.70;94331.78;5042351;28;20055;-63
2023/11/25 07:32:27;;;;;;;0.40;0.40;;;;;;;10.00;82.97;94491.84;5063697;28;20051;-65
2023/11/25 07:34:55;;;;;;;0.40;0.40;;;;;;;8.58;82.22;94318.44;5065041;28;20049;-64
2023/11/25 07:37:22;;;;;;;0.40;0.40;;;;;;;9.45;81.30;94429.06;5045350;28;20057;-63
2023/11/25 07:39:49;;;;;;;0.43;0.43;;;;;;;8.83;81.02;94338.81;5060460;28;20169;-62
2023/11/25 07:42:16;;;;;;;0.45;0.45;;;;;;;9.63;79.92;94490.25;5047426;28;20045;-59
2023/11/25 07:44:42;;;;;;;0.40;0.40;;;;;;;9.82;78.79;94514.31;5063354;28;20522;-58
2023/11/25 07:47:09;;;;;;;0.40;0.40;;;;;;;9.81;80.40;94496.19;5063531;28;20048;-63
2023/11/25 07:49:36;;;;;;;0.40;0.40;;;;;;;9.65;78.05;94498.91;5063714;28;20037;-63
2023/11/25 07:52:04;;;;;;;0.40;0.40;;;;;;;9.62;77.45;94488.69;5062660;28;20055;-65
2023/11/25 07:54:31;;;;;;;0.40;0.40;;;;;;;9.26;77.30;94490.63;5063046;28;20114;-68
2023/11/25 07:56:58;;;;;;;0.40;0.40;;;;;;;9.05;76.47;94455.09;5043686;28;20419;-64
2023/11/25 07:59:25;;;;;;;0.40;0.40;;;;;;;8.58;75.95;94401.19;5062754;28;20044;-61
2023/11/25 08:01:53;;;;;;;0.40;0.40;;;;;;;8.63;78.30;94381.41;5045731;28;20503;-59
2023/11/25 08:04:20;;;;;;;0.40;0.40;;;;;;;9.02;74.57;94433.88;5056372;28;20048;-62
2023/11/25 08:06:47;;;;;;;0.40;0.40;;;;;;;8.72;74.95;94407.25;5059371;28;20079;-65
2023/11/25 08:09:14;;;;;;;0.40;0.40;;;;;;;7.44;76.71;94244.47;5061703;28;20044;-64
2023/11/25 08:11:41;;;;;;;0.40;0.40;;;;;;;9.19;79.66;94499.03;5061388;28;20045;-64
2023/11/25 08:14:08;;;;;;;0.40;0.40;;;;;;;8.94;81.29;94484.91;5062388;28;20140;-63
2023/11/25 08:16:35;;;;;;;0.40;0.40;;;;;;;8.29;83.57;94453.31;5062468;28;20094;-62
2023/11/25 08:19:03;;;;;;;0.40;0.40;;;;;;;7.21;86.70;94288.47;5062514;28;20514;-67
2023/11/25 08:21:30;;;;;;;0.40;0.40;;;;;;;7.81;89.17;94413.47;5063965;28;20462;-62
2023/11/25 08:23:57;;;;;;;0.40;0.40;;;;;;;7.86;91.42;94446.84;5059607;28;20743;-66
2023/11/25 08:26:27;;;;;;;0.30;0.30;;;;;;;7.94;92.79;94470.34;5052862;28;20044;-64
2023/11/25 08:28:54;;;;;;;0.40;0.40;;;;;;;7.29;93.17;94435.81;5063288;28;20094;-67
2023/11/25 08:31:22;;;;;;;0.40;0.40;;;;;;;7.11;95.55;94407.72;5045753;28;20056;-60
2023/11/25 08:33:49;;;;;;;0.40;0.40;;;;;;;7.36;96.95;94471.53;5062437;28;20052;-59
2023/11/25 08:36:18;;;;;;;0.40;0.40;;;;;;;6.34;97.53;94383.84;5063086;28;20048;-60
2023/11/25 08:38:45;;;;;;;0.40;0.40;;;;;;;6.81;98.49;94424.19;5062957;28;20470;-64
2023/11/25 08:41:11;;;;;;;0.30;0.30;;;;;;;4.01;100.00;94040.53;5042278;28;20544;-61
2023/11/25 08:43:43;;;;;;;0.40;0.40;;;;;;;6.12;99.93;94341.28;5061391;28;20462;-66
2023/11/25 08:46:10;;;;;;;0.30;0.30;;;;;;;6.03;100.00;94335.50;5067283;28;20055;-60
2023/11/25 08:48:37;;;;;;;0.30;0.30;;;;;;;6.83;99.41;94484.34;5047016;28;20052;-63
2023/11/25 08:51:05;;;;;;;0.30;0.30;;;;;;;6.79;100.00;94462.38;5064499;28;20139;-62
2023/11/25 08:53:34;;;;;;;0.40;0.40;;;;;;;6.18;100.00;94383.63;5055260;28;20048;-62
2023/11/25 08:56:02;;;;;;;0.30;0.30;;;;;;;6.54;100.00;94461.81;5063093;28;20140;-61
2023/11/25 08:58:29;;;;;;;0.40;0.40;;;;;;;6.37;99.75;94465.50;5056507;28;20049;-64
2023/11/25 09:00:56;;;;;;;0.40;0.40;;;;;;;6.06;100.00;94408.84;5028093;28;20163;-61
2023/11/25 09:03:23;;;;;;;0.30;0.30;;;;;;;3.30;100.00;93974.53;5062452;28;20420;-66
2023/11/25 09:05:50;;;;;;;0.30;0.30;;;;;;;6.14;100.00;94443.31;5062320;28;20059;-62
2023/11/25 09:08:17;;;;;;;0.30;0.30;;;;;;;5.82;100.00;94393.34;5060461;28;20079;-61
2023/11/25 09:10:44;;;;;;;0.40;0.40;;;;;;;5.22;100.00;94371.00;5058655;28;20606;-63
2023/11/25 09:13:10;;;;;;;0.30;0.30;;;;;;;5.52;100.00;94388.44;5044249;28;20819;-63
2023/11/25 09:15:38;;;;;;;0.30;0.30;;;;;;;5.13;100.00;94385.16;5061841;28;20534;-63
2023/11/25 09:18:08;;;;;;;0.32;0.32;;;;;;;5.48;100.00;94406.13;5062126;28;20067;-64
2023/11/25 09:20:35;;;;;;;0.30;0.30;;;;;;;3.66;100.00;94128.31;5066851;28;20110;-63
2023/11/25 09:23:02;;;;;;;0.32;0.32;;;;;;;5.63;100.00;94437.78;5051847;28;20583;-63
2023/11/25 09:25:30;;;;;;;0.30;0.30;;;;;;;5.66;100.00;94439.72;5049125;28;20545;-64
2023/11/25 09:27:58;;;;;;;0.30;0.30;;;;;;;5.53;100.00;94436.66;5066976;28;20059;-63
2023/11/25 09:30:26;;;;;;;0.30;0.30;;;;;;;4.83;100.00;94315.59;5066897;28;20049;-64
2023/11/25 09:32:53;;;;;;;0.30;0.30;;;;;;;5.43;100.00;94447.72;5066529;28;20067;-63
2023/11/25 09:35:22;;;;;;;0.30;0.30;;;;;;;4.54;100.00;94321.22;5049214;28;20048;-63
2023/11/25 09:37:50;;;;;;;0.30;0.30;;;;;;;5.09;100.00;94400.84;5066918;28;20052;-64
2023/11/25 09:40:19;;;;;;;0.30;0.30;;;;;;;5.14;100.00;94394.19;5049219;28;20503;-64
2023/11/25 09:42:46;;;;;;;0.30;0.30;;;;;;;5.17;100.00;94385.91;5064782;28;20443;-65
2023/11/25 09:45:14;;;;;;;0.30;0.30;;;;;;;5.54;100.00;94453.94;5057627;28;20044;-66
2023/11/25 09:47:43;;;;;;;0.30;0.30;;;;;;;5.36;100.00;94431.31;5065542;28;20068;-66
2023/11/25 09:50:11;;;;;;;0.30;0.30;;;;;;;5.33;100.00;94418.34;5044936;28;20056;-63
2023/11/25 09:52:50;;;;;;;0.30;0.30;;;;;;;5.35;100.00;94425.03;5065179;28;20052;-64
2023/11/25 09:55:22;;;;;;;0.35;0.35;;;;;;;5.49;100.00;94413.16;5067159;28;20067;-63
2023/11/25 09:57:56;;;;;;;0.35;0.35;;;;;;;5.41;100.00;94423.41;5065240;28;20048;-64
2023/11/25 10:00:26;;;;;;;0.30;0.30;;;;;;;5.35;100.00;94426.97;5064877;28;20045;-61
2023/11/25 10:02:57;;;;;;;0.30;0.30;;;;;;;5.43;100.00;94417.53;5064844;28;20082;-61
2023/11/25 10:05:24;;;;;;;0.30;0.30;;;;;;;5.27;100.00;94415.25;5047774;28;20056;-60
2023/11/25 10:07:50;;;;;;;0.30;0.30;;;;;;;5.07;100.00;94358.56;5062906;28;20056;-62
2023/11/25 10:10:23;;;;;;;0.30;0.30;;;;;;;5.25;100.00;94414.88;5064957;28;20572;-60
2023/11/25 10:12:51;;;;;;;;;;;;;;;5.12;100.00;94413.00;5063587;28;20062;-61
2023/11/25 10:15:18;;;;;;;0.30;0.30;;;;;;;4.84;100.00;94369.25;5064100;28;20483;-62
2023/11/25 10:17:44;;;;;;;0.40;0.40;;;;;;;4.87;100.00;94404.09;5061094;28;20135;-62
2023/11/25 10:20:18;;;;;;;0.30;0.30;;;;;;;5.18;100.00;94408.66;5045681;28;20048;-63
2023/11/25 10:22:53;;;;;;;0.30;0.30;;;;;;;5.22;100.00;94407.44;5064842;28;20131;-63
2023/11/25 10:25:21;;;;;;;0.30;0.30;;;;;;;4.84;100.00;94350.06;5065647;28;20049;-62
2023/11/25 10:27:51;;;;;;;0.30;0.30;;;;;;;5.13;100.00;94373.41;5065820;28;20518;-62
2023/11/25 10:30:20;;;;;;;0.30;0.30;;;;;;;5.48;100.00;94422.59;5063967;28;20725;-61
2023/11/25 10:32:49;;;;;;;0.30;0.30;;;;;;;5.50;100.00;94401.03;5044918;28;20048;-61
2023/11/25 10:35:18;;;;;;;0.30;0.30;;;;;;;5.67;100.00;94403.66;5065158;28;20064;-60
2023/11/25 10:37:45;;;;;;;0.30;0.30;;;;;;;5.96;100.00;94396.75;5066433;28;20148;-62
2023/11/25 10:40:16;;;;;;;0.30;0.30;;;;;;;5.98;100.00;94390.88;5048094;28;20519;-61
2023/11/25 10:42:45;;;;;;;0.30;0.30;;;;;;;5.97;100.00;94378.31;5065971;28;20056;-60
2023/11/25 10:45:15;;;;;;;0.30;0.30;;;;;;;6.33;100.00;94385.06;5065772;28;20593;-62
2023/11/25 10:47:43;;;;;;;0.38;0.38;;;;;;;6.80;100.00;94384.13;5047511;28;20059;-61
2023/11/25 10:50:13;;;;;;;0.30;0.30;;;;;;;6.89;100.00;94389.91;5066106;28;20052;-61
2023/11/25 10:52:43;;;;;;;0.40;0.40;;;;;;;6.89;100.00;94395.41;5031580;28;20063;-62
2023/11/25 10:55:10;;;;;;;0.40;0.40;;;;;;;6.94;100.00;94386.72;5066249;28;20126;-61
2023/11/25 10:57:37;;;;;;;0.40;0.40;;;;;;;6.95;100.00;94349.78;5065414;28;20049;-62
2023/11/25 11:00:10;;;;;;;0.30;0.30;;;;;;;7.29;100.00;94391.78;5047560;28;20139;-61
2023/11/25 11:02:49;;;;;;;0.40;0.40;;;;;;;7.40;100.00;94392.41;5047918;28;20661;-61
2023/11/25 11:05:23;;;;;;;0.30;0.30;;;;;;;7.24;100.00;94358.44;5066119;28;20063;-61
2023/11/25 11:08:02;;;;;;;0.40;0.40;;;;;;;6.71;100.00;94333.56;5065581;28;20552;-61
2023/11/25 11:10:41;;;;;;;0.40;0.40;;;;;;;6.98;100.00;94392.97;5047773;28;20052;-61
2023/11/25 11:13:12;;;;;;;0.40;0.40;;;;;;;6.74;100.00;94388.53;5065730;28;20053;-60
2023/11/25 11:15:42;;;;;;;0.40;0.40;;;;;;;6.74;100.00;94366.53;5065438;28;20052;-62
2023/11/25 11:18:23;;;;;;;0.40;0.40;;;;;;;6.98;100.00;94370.97;5043593;28;20526;-62
2023/11/25 11:20:51;;;;;;;0.40;0.40;;;;;;;5.49;100.00;94087.34;5045599;28;20144;-61
2023/11/25 11:23:21;;;;;;;0.40;0.40;;;;;;;7.45;100.00;94361.66;5045537;28;20049;-61
2023/11/25 11:25:55;;;;;;;0.40;0.40;;;;;;;7.55;100.00;94359.94;5045562;28;20534;-62
2023/11/25 11:28:48;;;;;;;0.40;0.40;;;;;;;7.19;100.00;94359.66;5045148;28;20813;-61
2023/11/25 11:31:36;;;;;;;0.40;0.40;;;;;;;6.79;100.00;94368.84;5038984;28;20057;-62
2023/11/25 11:34:04;;;;;;;0.30;0.30;;;;;;;7.00;100.00;94352.03;5043744;28;20056;-63
2023/11/25 11:36:32;;;;;;;0.40;0.40;;;;;;;7.28;100.00;94329.66;5043695;28;20436;-62